<?xml version="1.0" encoding="UTF-8" standalone="no" ?>
<gpx xmlns="http://www.topografix.com/GPX/1/1" xmlns:xsi="http://www.w3.org/2001/XMLSchema-instance" xsi:schemaLocation="http://www.topografix.com/GPX/1/1 http://www.topografix.com/GPX/1/1/gpx.xsd" version="1.1" creator="VisuGPX - https://www.visugpx.com">
  <metadata>
    <name>Guebwiller-Croix de Mission</name>
    <desc><![CDATA[Petite balade de reprise au dessus de Guebwiller]]></desc>
  </metadata>
  <trk>
    <name><![CDATA[28 déc. 2016 à 13:05:40]]></name>
    <cmt><![CDATA[28 déc. 2016 à 13:05:40]]></cmt>
    <trkseg>
      <trkpt lat="47.91259" lon="7.21013">
        <ele>296</ele>
        <time>2016-12-28T12:06:37Z</time>
      </trkpt>
      <trkpt lat="47.91269" lon="7.20995">
        <ele>296</ele>
        <time>2016-12-28T12:06:58Z</time>
      </trkpt>
      <trkpt lat="47.91274" lon="7.20991">
        <ele>297</ele>
        <time>2016-12-28T12:07:03Z</time>
      </trkpt>
      <trkpt lat="47.91277" lon="7.20993">
        <ele>297</ele>
        <time>2016-12-28T12:07:05Z</time>
      </trkpt>
      <trkpt lat="47.91285" lon="7.20986">
        <ele>297</ele>
        <time>2016-12-28T12:07:10Z</time>
      </trkpt>
      <trkpt lat="47.91286" lon="7.20975">
        <ele>298</ele>
        <time>2016-12-28T12:07:17Z</time>
      </trkpt>
      <trkpt lat="47.91292" lon="7.20969">
        <ele>298</ele>
        <time>2016-12-28T12:07:20Z</time>
      </trkpt>
      <trkpt lat="47.91326" lon="7.2094">
        <ele>298</ele>
        <time>2016-12-28T12:08:00Z</time>
      </trkpt>
      <trkpt lat="47.91352" lon="7.20907">
        <ele>299</ele>
        <time>2016-12-28T12:08:33Z</time>
      </trkpt>
      <trkpt lat="47.91357" lon="7.20901">
        <ele>299</ele>
        <time>2016-12-28T12:08:41Z</time>
      </trkpt>
      <trkpt lat="47.91364" lon="7.20899">
        <ele>299</ele>
        <time>2016-12-28T12:08:54Z</time>
      </trkpt>
      <trkpt lat="47.9138" lon="7.20885">
        <ele>300</ele>
        <time>2016-12-28T12:09:11Z</time>
      </trkpt>
      <trkpt lat="47.91403" lon="7.20877">
        <ele>300</ele>
        <time>2016-12-28T12:09:33Z</time>
      </trkpt>
      <trkpt lat="47.91407" lon="7.20887">
        <ele>300</ele>
        <time>2016-12-28T12:09:40Z</time>
      </trkpt>
      <trkpt lat="47.9141" lon="7.20922">
        <ele>300</ele>
        <time>2016-12-28T12:09:59Z</time>
      </trkpt>
      <trkpt lat="47.91419" lon="7.20933">
        <ele>300</ele>
        <time>2016-12-28T12:10:12Z</time>
      </trkpt>
      <trkpt lat="47.91421" lon="7.20942">
        <ele>300</ele>
        <time>2016-12-28T12:10:16Z</time>
      </trkpt>
      <trkpt lat="47.91421" lon="7.20984">
        <ele>303</ele>
        <time>2016-12-28T12:10:49Z</time>
      </trkpt>
      <trkpt lat="47.91415" lon="7.2099">
        <ele>304</ele>
        <time>2016-12-28T12:10:53Z</time>
      </trkpt>
      <trkpt lat="47.9141" lon="7.20997">
        <ele>304</ele>
        <time>2016-12-28T12:11:00Z</time>
      </trkpt>
      <trkpt lat="47.91387" lon="7.21028">
        <ele>305</ele>
        <time>2016-12-28T12:11:28Z</time>
      </trkpt>
      <trkpt lat="47.91382" lon="7.21034">
        <ele>306</ele>
        <time>2016-12-28T12:11:34Z</time>
      </trkpt>
      <trkpt lat="47.91381" lon="7.21042">
        <ele>306</ele>
        <time>2016-12-28T12:11:40Z</time>
      </trkpt>
      <trkpt lat="47.91358" lon="7.21072">
        <ele>310</ele>
        <time>2016-12-28T12:12:11Z</time>
      </trkpt>
      <trkpt lat="47.91345" lon="7.21092">
        <ele>312</ele>
        <time>2016-12-28T12:12:28Z</time>
      </trkpt>
      <trkpt lat="47.91331" lon="7.21101">
        <ele>313</ele>
        <time>2016-12-28T12:12:43Z</time>
      </trkpt>
      <trkpt lat="47.91325" lon="7.21109">
        <ele>313</ele>
        <time>2016-12-28T12:12:54Z</time>
      </trkpt>
      <trkpt lat="47.91318" lon="7.21116">
        <ele>314</ele>
        <time>2016-12-28T12:13:08Z</time>
      </trkpt>
      <trkpt lat="47.91313" lon="7.21121">
        <ele>314</ele>
        <time>2016-12-28T12:13:15Z</time>
      </trkpt>
      <trkpt lat="47.91308" lon="7.21127">
        <ele>314</ele>
        <time>2016-12-28T12:13:20Z</time>
      </trkpt>
      <trkpt lat="47.91307" lon="7.21135">
        <ele>315</ele>
        <time>2016-12-28T12:13:23Z</time>
      </trkpt>
      <trkpt lat="47.91296" lon="7.21155">
        <ele>318</ele>
        <time>2016-12-28T12:13:46Z</time>
      </trkpt>
      <trkpt lat="47.913" lon="7.21165">
        <ele>319</ele>
        <time>2016-12-28T12:13:52Z</time>
      </trkpt>
      <trkpt lat="47.91307" lon="7.21161">
        <ele>321</ele>
        <time>2016-12-28T12:14:07Z</time>
      </trkpt>
      <trkpt lat="47.91323" lon="7.21149">
        <ele>323</ele>
        <time>2016-12-28T12:14:26Z</time>
      </trkpt>
      <trkpt lat="47.91329" lon="7.21147">
        <ele>323</ele>
        <time>2016-12-28T12:14:35Z</time>
      </trkpt>
      <trkpt lat="47.91346" lon="7.21138">
        <ele>325</ele>
        <time>2016-12-28T12:14:55Z</time>
      </trkpt>
      <trkpt lat="47.91347" lon="7.21148">
        <ele>327</ele>
        <time>2016-12-28T12:15:04Z</time>
      </trkpt>
      <trkpt lat="47.91343" lon="7.21155">
        <ele>328</ele>
        <time>2016-12-28T12:15:11Z</time>
      </trkpt>
      <trkpt lat="47.91338" lon="7.2116">
        <ele>328</ele>
        <time>2016-12-28T12:15:15Z</time>
      </trkpt>
      <trkpt lat="47.91338" lon="7.21167">
        <ele>329</ele>
        <time>2016-12-28T12:15:31Z</time>
      </trkpt>
      <trkpt lat="47.91334" lon="7.21168">
        <ele>330</ele>
        <time>2016-12-28T12:15:35Z</time>
      </trkpt>
      <trkpt lat="47.91318" lon="7.21189">
        <ele>330</ele>
        <time>2016-12-28T12:15:57Z</time>
      </trkpt>
      <trkpt lat="47.91315" lon="7.21199">
        <ele>332</ele>
        <time>2016-12-28T12:16:05Z</time>
      </trkpt>
      <trkpt lat="47.91309" lon="7.21204">
        <ele>332</ele>
        <time>2016-12-28T12:16:13Z</time>
      </trkpt>
      <trkpt lat="47.913" lon="7.21225">
        <ele>333</ele>
        <time>2016-12-28T12:16:30Z</time>
      </trkpt>
      <trkpt lat="47.91293" lon="7.21232">
        <ele>334</ele>
        <time>2016-12-28T12:16:44Z</time>
      </trkpt>
      <trkpt lat="47.91269" lon="7.21263">
        <ele>337</ele>
        <time>2016-12-28T12:17:16Z</time>
      </trkpt>
      <trkpt lat="47.91262" lon="7.21267">
        <ele>338</ele>
        <time>2016-12-28T12:17:20Z</time>
      </trkpt>
      <trkpt lat="47.9126" lon="7.21271">
        <ele>338</ele>
        <time>2016-12-28T12:17:30Z</time>
      </trkpt>
      <trkpt lat="47.91255" lon="7.21276">
        <ele>338</ele>
        <time>2016-12-28T12:17:36Z</time>
      </trkpt>
      <trkpt lat="47.91244" lon="7.21293">
        <ele>340</ele>
        <time>2016-12-28T12:17:56Z</time>
      </trkpt>
      <trkpt lat="47.91233" lon="7.21311">
        <ele>340</ele>
        <time>2016-12-28T12:18:13Z</time>
      </trkpt>
      <trkpt lat="47.91231" lon="7.2132">
        <ele>342</ele>
        <time>2016-12-28T12:18:22Z</time>
      </trkpt>
      <trkpt lat="47.91221" lon="7.21333">
        <ele>343</ele>
        <time>2016-12-28T12:18:36Z</time>
      </trkpt>
      <trkpt lat="47.91216" lon="7.21339">
        <ele>343</ele>
        <time>2016-12-28T12:18:43Z</time>
      </trkpt>
      <trkpt lat="47.91214" lon="7.21342">
        <ele>344</ele>
        <time>2016-12-28T12:18:51Z</time>
      </trkpt>
      <trkpt lat="47.91208" lon="7.21346">
        <ele>344</ele>
        <time>2016-12-28T12:18:57Z</time>
      </trkpt>
      <trkpt lat="47.91203" lon="7.21352">
        <ele>344</ele>
        <time>2016-12-28T12:19:06Z</time>
      </trkpt>
      <trkpt lat="47.91197" lon="7.21356">
        <ele>344</ele>
        <time>2016-12-28T12:19:11Z</time>
      </trkpt>
      <trkpt lat="47.91194" lon="7.21363">
        <ele>344</ele>
        <time>2016-12-28T12:19:18Z</time>
      </trkpt>
      <trkpt lat="47.91191" lon="7.2137">
        <ele>344</ele>
        <time>2016-12-28T12:19:22Z</time>
      </trkpt>
      <trkpt lat="47.91179" lon="7.21389">
        <ele>346</ele>
        <time>2016-12-28T12:19:46Z</time>
      </trkpt>
      <trkpt lat="47.91177" lon="7.21392">
        <ele>347</ele>
        <time>2016-12-28T12:19:58Z</time>
      </trkpt>
      <trkpt lat="47.91173" lon="7.21398">
        <ele>347</ele>
        <time>2016-12-28T12:20:03Z</time>
      </trkpt>
      <trkpt lat="47.91162" lon="7.21413">
        <ele>349</ele>
        <time>2016-12-28T12:20:21Z</time>
      </trkpt>
      <trkpt lat="47.91157" lon="7.21415">
        <ele>349</ele>
        <time>2016-12-28T12:20:26Z</time>
      </trkpt>
      <trkpt lat="47.91151" lon="7.21415">
        <ele>349</ele>
        <time>2016-12-28T12:20:31Z</time>
      </trkpt>
      <trkpt lat="47.9114" lon="7.21425">
        <ele>349</ele>
        <time>2016-12-28T12:20:45Z</time>
      </trkpt>
      <trkpt lat="47.91139" lon="7.21434">
        <ele>349</ele>
        <time>2016-12-28T12:20:52Z</time>
      </trkpt>
      <trkpt lat="47.91133" lon="7.21438">
        <ele>350</ele>
        <time>2016-12-28T12:21:01Z</time>
      </trkpt>
      <trkpt lat="47.91128" lon="7.2144">
        <ele>350</ele>
        <time>2016-12-28T12:21:07Z</time>
      </trkpt>
      <trkpt lat="47.91122" lon="7.21445">
        <ele>350</ele>
        <time>2016-12-28T12:21:16Z</time>
      </trkpt>
      <trkpt lat="47.91108" lon="7.21465">
        <ele>352</ele>
        <time>2016-12-28T12:21:39Z</time>
      </trkpt>
      <trkpt lat="47.91103" lon="7.21467">
        <ele>352</ele>
        <time>2016-12-28T12:21:55Z</time>
      </trkpt>
      <trkpt lat="47.91101" lon="7.21476">
        <ele>352</ele>
        <time>2016-12-28T12:22:02Z</time>
      </trkpt>
      <trkpt lat="47.91094" lon="7.21508">
        <ele>357</ele>
        <time>2016-12-28T12:22:31Z</time>
      </trkpt>
      <trkpt lat="47.9109" lon="7.21511">
        <ele>357</ele>
        <time>2016-12-28T12:22:36Z</time>
      </trkpt>
      <trkpt lat="47.91085" lon="7.21526">
        <ele>357</ele>
        <time>2016-12-28T12:22:46Z</time>
      </trkpt>
      <trkpt lat="47.9108" lon="7.21532">
        <ele>357</ele>
        <time>2016-12-28T12:22:51Z</time>
      </trkpt>
      <trkpt lat="47.91074" lon="7.2154">
        <ele>358</ele>
        <time>2016-12-28T12:22:57Z</time>
      </trkpt>
      <trkpt lat="47.91071" lon="7.21541">
        <ele>358</ele>
        <time>2016-12-28T12:23:05Z</time>
      </trkpt>
      <trkpt lat="47.91062" lon="7.21558">
        <ele>358</ele>
        <time>2016-12-28T12:23:18Z</time>
      </trkpt>
      <trkpt lat="47.9105" lon="7.21572">
        <ele>358</ele>
        <time>2016-12-28T12:23:33Z</time>
      </trkpt>
      <trkpt lat="47.91027" lon="7.21595">
        <ele>356</ele>
        <time>2016-12-28T12:24:01Z</time>
      </trkpt>
      <trkpt lat="47.91024" lon="7.21603">
        <ele>356</ele>
        <time>2016-12-28T12:24:06Z</time>
      </trkpt>
      <trkpt lat="47.91021" lon="7.21611">
        <ele>356</ele>
        <time>2016-12-28T12:24:16Z</time>
      </trkpt>
      <trkpt lat="47.91012" lon="7.2163">
        <ele>355</ele>
        <time>2016-12-28T12:24:30Z</time>
      </trkpt>
      <trkpt lat="47.9101" lon="7.21634">
        <ele>355</ele>
        <time>2016-12-28T12:24:37Z</time>
      </trkpt>
      <trkpt lat="47.91005" lon="7.21645">
        <ele>355</ele>
        <time>2016-12-28T12:24:40Z</time>
      </trkpt>
      <trkpt lat="47.91" lon="7.21652">
        <ele>354</ele>
        <time>2016-12-28T12:24:49Z</time>
      </trkpt>
      <trkpt lat="47.90993" lon="7.21665">
        <ele>354</ele>
        <time>2016-12-28T12:25:04Z</time>
      </trkpt>
      <trkpt lat="47.90982" lon="7.21683">
        <ele>353</ele>
        <time>2016-12-28T12:25:23Z</time>
      </trkpt>
      <trkpt lat="47.9098" lon="7.21692">
        <ele>352</ele>
        <time>2016-12-28T12:25:29Z</time>
      </trkpt>
      <trkpt lat="47.90973" lon="7.21707">
        <ele>350</ele>
        <time>2016-12-28T12:25:41Z</time>
      </trkpt>
      <trkpt lat="47.90969" lon="7.21714">
        <ele>351</ele>
        <time>2016-12-28T12:25:48Z</time>
      </trkpt>
      <trkpt lat="47.90966" lon="7.21722">
        <ele>352</ele>
        <time>2016-12-28T12:25:55Z</time>
      </trkpt>
      <trkpt lat="47.9095" lon="7.21753">
        <ele>350</ele>
        <time>2016-12-28T12:26:23Z</time>
      </trkpt>
      <trkpt lat="47.9094" lon="7.21765">
        <ele>347</ele>
        <time>2016-12-28T12:26:36Z</time>
      </trkpt>
      <trkpt lat="47.90938" lon="7.21776">
        <ele>346</ele>
        <time>2016-12-28T12:26:51Z</time>
      </trkpt>
      <trkpt lat="47.90933" lon="7.21784">
        <ele>345</ele>
        <time>2016-12-28T12:26:56Z</time>
      </trkpt>
      <trkpt lat="47.90932" lon="7.21794">
        <ele>345</ele>
        <time>2016-12-28T12:27:04Z</time>
      </trkpt>
      <trkpt lat="47.90925" lon="7.21823">
        <ele>345</ele>
        <time>2016-12-28T12:27:22Z</time>
      </trkpt>
      <trkpt lat="47.90919" lon="7.21828">
        <ele>345</ele>
        <time>2016-12-28T12:27:27Z</time>
      </trkpt>
      <trkpt lat="47.90916" lon="7.21836">
        <ele>344</ele>
        <time>2016-12-28T12:27:37Z</time>
      </trkpt>
      <trkpt lat="47.90912" lon="7.21844">
        <ele>344</ele>
        <time>2016-12-28T12:27:40Z</time>
      </trkpt>
      <trkpt lat="47.90905" lon="7.21865">
        <ele>343</ele>
        <time>2016-12-28T12:28:01Z</time>
      </trkpt>
      <trkpt lat="47.90904" lon="7.21875">
        <ele>343</ele>
        <time>2016-12-28T12:28:07Z</time>
      </trkpt>
      <trkpt lat="47.90901" lon="7.21875">
        <ele>343</ele>
        <time>2016-12-28T12:28:14Z</time>
      </trkpt>
      <trkpt lat="47.90898" lon="7.21881">
        <ele>343</ele>
        <time>2016-12-28T12:28:17Z</time>
      </trkpt>
      <trkpt lat="47.90893" lon="7.21901">
        <ele>342</ele>
        <time>2016-12-28T12:28:27Z</time>
      </trkpt>
      <trkpt lat="47.90893" lon="7.2191">
        <ele>342</ele>
        <time>2016-12-28T12:28:37Z</time>
      </trkpt>
      <trkpt lat="47.90889" lon="7.21928">
        <ele>343</ele>
        <time>2016-12-28T12:28:50Z</time>
      </trkpt>
      <trkpt lat="47.90883" lon="7.21946">
        <ele>342</ele>
        <time>2016-12-28T12:29:02Z</time>
      </trkpt>
      <trkpt lat="47.90877" lon="7.21963">
        <ele>343</ele>
        <time>2016-12-28T12:29:12Z</time>
      </trkpt>
      <trkpt lat="47.90875" lon="7.21976">
        <ele>344</ele>
        <time>2016-12-28T12:29:30Z</time>
      </trkpt>
      <trkpt lat="47.9087" lon="7.21978">
        <ele>344</ele>
        <time>2016-12-28T12:29:39Z</time>
      </trkpt>
      <trkpt lat="47.90865" lon="7.21987">
        <ele>345</ele>
        <time>2016-12-28T12:29:48Z</time>
      </trkpt>
      <trkpt lat="47.90846" lon="7.22008">
        <ele>345</ele>
        <time>2016-12-28T12:30:24Z</time>
      </trkpt>
      <trkpt lat="47.90831" lon="7.2202">
        <ele>344</ele>
        <time>2016-12-28T12:30:51Z</time>
      </trkpt>
      <trkpt lat="47.90824" lon="7.22035">
        <ele>345</ele>
        <time>2016-12-28T12:31:07Z</time>
      </trkpt>
      <trkpt lat="47.9082" lon="7.22057">
        <ele>348</ele>
        <time>2016-12-28T12:31:33Z</time>
      </trkpt>
      <trkpt lat="47.90811" lon="7.2206">
        <ele>351</ele>
        <time>2016-12-28T12:31:56Z</time>
      </trkpt>
      <trkpt lat="47.9081" lon="7.22074">
        <ele>352</ele>
        <time>2016-12-28T12:32:04Z</time>
      </trkpt>
      <trkpt lat="47.90804" lon="7.22093">
        <ele>357</ele>
        <time>2016-12-28T12:32:30Z</time>
      </trkpt>
      <trkpt lat="47.908" lon="7.22102">
        <ele>357</ele>
        <time>2016-12-28T12:32:40Z</time>
      </trkpt>
      <trkpt lat="47.90797" lon="7.22107">
        <ele>357</ele>
        <time>2016-12-28T12:32:50Z</time>
      </trkpt>
      <trkpt lat="47.90795" lon="7.22116">
        <ele>362</ele>
        <time>2016-12-28T12:33:02Z</time>
      </trkpt>
      <trkpt lat="47.90791" lon="7.22116">
        <ele>364</ele>
        <time>2016-12-28T12:33:11Z</time>
      </trkpt>
      <trkpt lat="47.90787" lon="7.22121">
        <ele>365</ele>
        <time>2016-12-28T12:33:18Z</time>
      </trkpt>
      <trkpt lat="47.90781" lon="7.22124">
        <ele>367</ele>
        <time>2016-12-28T12:33:34Z</time>
      </trkpt>
      <trkpt lat="47.90777" lon="7.2213">
        <ele>367</ele>
        <time>2016-12-28T12:33:39Z</time>
      </trkpt>
      <trkpt lat="47.90769" lon="7.22145">
        <ele>370</ele>
        <time>2016-12-28T12:34:12Z</time>
      </trkpt>
      <trkpt lat="47.90771" lon="7.22152">
        <ele>372</ele>
        <time>2016-12-28T12:34:20Z</time>
      </trkpt>
      <trkpt lat="47.90767" lon="7.22155">
        <ele>373</ele>
        <time>2016-12-28T12:34:36Z</time>
      </trkpt>
      <trkpt lat="47.90755" lon="7.22177">
        <ele>377</ele>
        <time>2016-12-28T12:35:14Z</time>
      </trkpt>
      <trkpt lat="47.90752" lon="7.22183">
        <ele>379</ele>
        <time>2016-12-28T12:35:22Z</time>
      </trkpt>
      <trkpt lat="47.90751" lon="7.22192">
        <ele>380</ele>
        <time>2016-12-28T12:35:32Z</time>
      </trkpt>
      <trkpt lat="47.90753" lon="7.22206">
        <ele>384</ele>
        <time>2016-12-28T12:35:55Z</time>
      </trkpt>
      <trkpt lat="47.9075" lon="7.22209">
        <ele>384</ele>
        <time>2016-12-28T12:36:03Z</time>
      </trkpt>
      <trkpt lat="47.90745" lon="7.22214">
        <ele>386</ele>
        <time>2016-12-28T12:36:11Z</time>
      </trkpt>
      <trkpt lat="47.90734" lon="7.22221">
        <ele>387</ele>
        <time>2016-12-28T12:36:27Z</time>
      </trkpt>
      <trkpt lat="47.90712" lon="7.22235">
        <ele>387</ele>
        <time>2016-12-28T12:36:57Z</time>
      </trkpt>
      <trkpt lat="47.90689" lon="7.22247">
        <ele>387</ele>
        <time>2016-12-28T12:37:23Z</time>
      </trkpt>
      <trkpt lat="47.90666" lon="7.22247">
        <ele>384</ele>
        <time>2016-12-28T12:37:55Z</time>
      </trkpt>
      <trkpt lat="47.90636" lon="7.22264">
        <ele>379</ele>
        <time>2016-12-28T12:38:30Z</time>
      </trkpt>
      <trkpt lat="47.9063" lon="7.22267">
        <ele>376</ele>
        <time>2016-12-28T12:38:39Z</time>
      </trkpt>
      <trkpt lat="47.90628" lon="7.22272">
        <ele>374</ele>
        <time>2016-12-28T12:38:46Z</time>
      </trkpt>
      <trkpt lat="47.90632" lon="7.22278">
        <ele>374</ele>
        <time>2016-12-28T12:38:49Z</time>
      </trkpt>
      <trkpt lat="47.90638" lon="7.22269">
        <ele>375</ele>
        <time>2016-12-28T12:38:54Z</time>
      </trkpt>
      <trkpt lat="47.90638" lon="7.22259">
        <ele>376</ele>
        <time>2016-12-28T12:38:58Z</time>
      </trkpt>
      <trkpt lat="47.90646" lon="7.22259">
        <ele>377</ele>
        <time>2016-12-28T12:39:12Z</time>
      </trkpt>
      <trkpt lat="47.90671" lon="7.22248">
        <ele>384</ele>
        <time>2016-12-28T12:39:43Z</time>
      </trkpt>
      <trkpt lat="47.90684" lon="7.22249">
        <ele>386</ele>
        <time>2016-12-28T12:40:02Z</time>
      </trkpt>
      <trkpt lat="47.90689" lon="7.22247">
        <ele>386</ele>
        <time>2016-12-28T12:40:06Z</time>
      </trkpt>
      <trkpt lat="47.90696" lon="7.2224">
        <ele>386</ele>
        <time>2016-12-28T12:40:14Z</time>
      </trkpt>
      <trkpt lat="47.90728" lon="7.22233">
        <ele>388</ele>
        <time>2016-12-28T12:40:46Z</time>
      </trkpt>
      <trkpt lat="47.90731" lon="7.22226">
        <ele>389</ele>
        <time>2016-12-28T12:40:52Z</time>
      </trkpt>
      <trkpt lat="47.90736" lon="7.2222">
        <ele>388</ele>
        <time>2016-12-28T12:41:09Z</time>
      </trkpt>
      <trkpt lat="47.90742" lon="7.22221">
        <ele>388</ele>
        <time>2016-12-28T12:41:14Z</time>
      </trkpt>
      <trkpt lat="47.90747" lon="7.22224">
        <ele>389</ele>
        <time>2016-12-28T12:41:21Z</time>
      </trkpt>
      <trkpt lat="47.90765" lon="7.22219">
        <ele>391</ele>
        <time>2016-12-28T12:41:45Z</time>
      </trkpt>
      <trkpt lat="47.90782" lon="7.22201">
        <ele>390</ele>
        <time>2016-12-28T12:42:05Z</time>
      </trkpt>
      <trkpt lat="47.90791" lon="7.22206">
        <ele>390</ele>
        <time>2016-12-28T12:42:16Z</time>
      </trkpt>
      <trkpt lat="47.90795" lon="7.22208">
        <ele>392</ele>
        <time>2016-12-28T12:42:28Z</time>
      </trkpt>
      <trkpt lat="47.90801" lon="7.22205">
        <ele>392</ele>
        <time>2016-12-28T12:42:32Z</time>
      </trkpt>
      <trkpt lat="47.90805" lon="7.22206">
        <ele>393</ele>
        <time>2016-12-28T12:42:48Z</time>
      </trkpt>
      <trkpt lat="47.90813" lon="7.22211">
        <ele>394</ele>
        <time>2016-12-28T12:43:01Z</time>
      </trkpt>
      <trkpt lat="47.90818" lon="7.22215">
        <ele>397</ele>
        <time>2016-12-28T12:43:14Z</time>
      </trkpt>
      <trkpt lat="47.90822" lon="7.2221">
        <ele>397</ele>
        <time>2016-12-28T12:43:26Z</time>
      </trkpt>
      <trkpt lat="47.90828" lon="7.22205">
        <ele>397</ele>
        <time>2016-12-28T12:43:29Z</time>
      </trkpt>
      <trkpt lat="47.90837" lon="7.2219">
        <ele>396</ele>
        <time>2016-12-28T12:43:59Z</time>
      </trkpt>
      <trkpt lat="47.90847" lon="7.22178">
        <ele>395</ele>
        <time>2016-12-28T12:44:20Z</time>
      </trkpt>
      <trkpt lat="47.9085" lon="7.22171">
        <ele>395</ele>
        <time>2016-12-28T12:44:32Z</time>
      </trkpt>
      <trkpt lat="47.90857" lon="7.22168">
        <ele>394</ele>
        <time>2016-12-28T12:44:42Z</time>
      </trkpt>
      <trkpt lat="47.90859" lon="7.22171">
        <ele>395</ele>
        <time>2016-12-28T12:44:49Z</time>
      </trkpt>
      <trkpt lat="47.90863" lon="7.22167">
        <ele>396</ele>
        <time>2016-12-28T12:45:29Z</time>
      </trkpt>
      <trkpt lat="47.90874" lon="7.22161">
        <ele>396</ele>
        <time>2016-12-28T12:45:50Z</time>
      </trkpt>
      <trkpt lat="47.90885" lon="7.22164">
        <ele>397</ele>
        <time>2016-12-28T12:46:16Z</time>
      </trkpt>
      <trkpt lat="47.90888" lon="7.22156">
        <ele>397</ele>
        <time>2016-12-28T12:46:23Z</time>
      </trkpt>
      <trkpt lat="47.90895" lon="7.22163">
        <ele>398</ele>
        <time>2016-12-28T12:46:43Z</time>
      </trkpt>
      <trkpt lat="47.90904" lon="7.2216">
        <ele>400</ele>
        <time>2016-12-28T12:47:00Z</time>
      </trkpt>
      <trkpt lat="47.90909" lon="7.22163">
        <ele>401</ele>
        <time>2016-12-28T12:47:06Z</time>
      </trkpt>
      <trkpt lat="47.90921" lon="7.2216">
        <ele>404</ele>
        <time>2016-12-28T12:47:27Z</time>
      </trkpt>
      <trkpt lat="47.90938" lon="7.22163">
        <ele>408</ele>
        <time>2016-12-28T12:48:12Z</time>
      </trkpt>
      <trkpt lat="47.90954" lon="7.22167">
        <ele>412</ele>
        <time>2016-12-28T12:48:43Z</time>
      </trkpt>
      <trkpt lat="47.90961" lon="7.22163">
        <ele>413</ele>
        <time>2016-12-28T12:48:55Z</time>
      </trkpt>
      <trkpt lat="47.90964" lon="7.22159">
        <ele>414</ele>
        <time>2016-12-28T12:49:09Z</time>
      </trkpt>
      <trkpt lat="47.90971" lon="7.2216">
        <ele>414</ele>
        <time>2016-12-28T12:49:15Z</time>
      </trkpt>
      <trkpt lat="47.90997" lon="7.22165">
        <ele>420</ele>
        <time>2016-12-28T12:49:49Z</time>
      </trkpt>
      <trkpt lat="47.91007" lon="7.22168">
        <ele>423</ele>
        <time>2016-12-28T12:50:08Z</time>
      </trkpt>
      <trkpt lat="47.91021" lon="7.22174">
        <ele>424</ele>
        <time>2016-12-28T12:50:30Z</time>
      </trkpt>
      <trkpt lat="47.91026" lon="7.22178">
        <ele>425</ele>
        <time>2016-12-28T12:50:33Z</time>
      </trkpt>
      <trkpt lat="47.91039" lon="7.22184">
        <ele>426</ele>
        <time>2016-12-28T12:50:50Z</time>
      </trkpt>
      <trkpt lat="47.91051" lon="7.22176">
        <ele>427</ele>
        <time>2016-12-28T12:51:07Z</time>
      </trkpt>
      <trkpt lat="47.91057" lon="7.22167">
        <ele>428</ele>
        <time>2016-12-28T12:51:12Z</time>
      </trkpt>
      <trkpt lat="47.91058" lon="7.22156">
        <ele>430</ele>
        <time>2016-12-28T12:51:19Z</time>
      </trkpt>
      <trkpt lat="47.91058" lon="7.22148">
        <ele>431</ele>
        <time>2016-12-28T12:51:28Z</time>
      </trkpt>
      <trkpt lat="47.91056" lon="7.22136">
        <ele>432</ele>
        <time>2016-12-28T12:51:36Z</time>
      </trkpt>
      <trkpt lat="47.91051" lon="7.22127">
        <ele>432</ele>
        <time>2016-12-28T12:51:46Z</time>
      </trkpt>
      <trkpt lat="47.91044" lon="7.22113">
        <ele>431</ele>
        <time>2016-12-28T12:51:58Z</time>
      </trkpt>
      <trkpt lat="47.91043" lon="7.22103">
        <ele>429</ele>
        <time>2016-12-28T12:52:10Z</time>
      </trkpt>
      <trkpt lat="47.9104" lon="7.22092">
        <ele>429</ele>
        <time>2016-12-28T12:52:17Z</time>
      </trkpt>
      <trkpt lat="47.91037" lon="7.22079">
        <ele>427</ele>
        <time>2016-12-28T12:52:28Z</time>
      </trkpt>
      <trkpt lat="47.91036" lon="7.22068">
        <ele>427</ele>
        <time>2016-12-28T12:52:32Z</time>
      </trkpt>
      <trkpt lat="47.91032" lon="7.2203">
        <ele>424</ele>
        <time>2016-12-28T12:53:03Z</time>
      </trkpt>
      <trkpt lat="47.91033" lon="7.22019">
        <ele>423</ele>
        <time>2016-12-28T12:53:11Z</time>
      </trkpt>
      <trkpt lat="47.91033" lon="7.21982">
        <ele>422</ele>
        <time>2016-12-28T12:53:41Z</time>
      </trkpt>
      <trkpt lat="47.91027" lon="7.21977">
        <ele>421</ele>
        <time>2016-12-28T12:53:50Z</time>
      </trkpt>
      <trkpt lat="47.91032" lon="7.21969">
        <ele>420</ele>
        <time>2016-12-28T12:53:56Z</time>
      </trkpt>
      <trkpt lat="47.91042" lon="7.21936">
        <ele>423</ele>
        <time>2016-12-28T12:54:26Z</time>
      </trkpt>
      <trkpt lat="47.91052" lon="7.21903">
        <ele>424</ele>
        <time>2016-12-28T12:54:49Z</time>
      </trkpt>
      <trkpt lat="47.91057" lon="7.21894">
        <ele>426</ele>
        <time>2016-12-28T12:54:54Z</time>
      </trkpt>
      <trkpt lat="47.91057" lon="7.21885">
        <ele>427</ele>
        <time>2016-12-28T12:55:07Z</time>
      </trkpt>
      <trkpt lat="47.91061" lon="7.21878">
        <ele>429</ele>
        <time>2016-12-28T12:55:19Z</time>
      </trkpt>
      <trkpt lat="47.91067" lon="7.21869">
        <ele>429</ele>
        <time>2016-12-28T12:55:28Z</time>
      </trkpt>
      <trkpt lat="47.91073" lon="7.21863">
        <ele>432</ele>
        <time>2016-12-28T12:55:38Z</time>
      </trkpt>
      <trkpt lat="47.91075" lon="7.21852">
        <ele>434</ele>
        <time>2016-12-28T12:55:46Z</time>
      </trkpt>
      <trkpt lat="47.91085" lon="7.21823">
        <ele>437</ele>
        <time>2016-12-28T12:56:20Z</time>
      </trkpt>
      <trkpt lat="47.9109" lon="7.2179">
        <ele>442</ele>
        <time>2016-12-28T12:56:50Z</time>
      </trkpt>
      <trkpt lat="47.91094" lon="7.21782">
        <ele>443</ele>
        <time>2016-12-28T12:57:00Z</time>
      </trkpt>
      <trkpt lat="47.91099" lon="7.21779">
        <ele>443</ele>
        <time>2016-12-28T12:57:07Z</time>
      </trkpt>
      <trkpt lat="47.91103" lon="7.21773">
        <ele>442</ele>
        <time>2016-12-28T12:57:13Z</time>
      </trkpt>
      <trkpt lat="47.91113" lon="7.21768">
        <ele>441</ele>
        <time>2016-12-28T12:57:29Z</time>
      </trkpt>
      <trkpt lat="47.91117" lon="7.21759">
        <ele>442</ele>
        <time>2016-12-28T12:57:42Z</time>
      </trkpt>
      <trkpt lat="47.91126" lon="7.2174">
        <ele>442</ele>
        <time>2016-12-28T12:57:57Z</time>
      </trkpt>
      <trkpt lat="47.9113" lon="7.21734">
        <ele>442</ele>
        <time>2016-12-28T12:58:03Z</time>
      </trkpt>
      <trkpt lat="47.91145" lon="7.21718">
        <ele>442</ele>
        <time>2016-12-28T12:58:23Z</time>
      </trkpt>
      <trkpt lat="47.91162" lon="7.21695">
        <ele>444</ele>
        <time>2016-12-28T12:58:46Z</time>
      </trkpt>
      <trkpt lat="47.91167" lon="7.21687">
        <ele>443</ele>
        <time>2016-12-28T12:58:54Z</time>
      </trkpt>
      <trkpt lat="47.91168" lon="7.21683">
        <ele>442</ele>
        <time>2016-12-28T12:59:01Z</time>
      </trkpt>
      <trkpt lat="47.91192" lon="7.21641">
        <ele>437</ele>
        <time>2016-12-28T12:59:37Z</time>
      </trkpt>
      <trkpt lat="47.91202" lon="7.2162">
        <ele>434</ele>
        <time>2016-12-28T12:59:57Z</time>
      </trkpt>
      <trkpt lat="47.91207" lon="7.21617">
        <ele>433</ele>
        <time>2016-12-28T13:00:06Z</time>
      </trkpt>
      <trkpt lat="47.91217" lon="7.21607">
        <ele>433</ele>
        <time>2016-12-28T13:00:19Z</time>
      </trkpt>
      <trkpt lat="47.91229" lon="7.21595">
        <ele>432</ele>
        <time>2016-12-28T13:00:35Z</time>
      </trkpt>
      <trkpt lat="47.91237" lon="7.21595">
        <ele>433</ele>
        <time>2016-12-28T13:00:44Z</time>
      </trkpt>
      <trkpt lat="47.91277" lon="7.21587">
        <ele>439</ele>
        <time>2016-12-28T13:01:28Z</time>
      </trkpt>
      <trkpt lat="47.91284" lon="7.21583">
        <ele>441</ele>
        <time>2016-12-28T13:01:37Z</time>
      </trkpt>
      <trkpt lat="47.913" lon="7.21567">
        <ele>441</ele>
        <time>2016-12-28T13:01:53Z</time>
      </trkpt>
      <trkpt lat="47.91301" lon="7.21554">
        <ele>440</ele>
        <time>2016-12-28T13:02:05Z</time>
      </trkpt>
      <trkpt lat="47.91307" lon="7.21548">
        <ele>439</ele>
        <time>2016-12-28T13:02:12Z</time>
      </trkpt>
      <trkpt lat="47.9132" lon="7.21537">
        <ele>433</ele>
        <time>2016-12-28T13:02:33Z</time>
      </trkpt>
      <trkpt lat="47.91327" lon="7.21521">
        <ele>433</ele>
        <time>2016-12-28T13:02:46Z</time>
      </trkpt>
      <trkpt lat="47.9134" lon="7.21508">
        <ele>435</ele>
        <time>2016-12-28T13:03:03Z</time>
      </trkpt>
      <trkpt lat="47.91348" lon="7.21495">
        <ele>435</ele>
        <time>2016-12-28T13:03:13Z</time>
      </trkpt>
      <trkpt lat="47.91356" lon="7.21497">
        <ele>436</ele>
        <time>2016-12-28T13:03:21Z</time>
      </trkpt>
      <trkpt lat="47.91362" lon="7.21492">
        <ele>437</ele>
        <time>2016-12-28T13:03:31Z</time>
      </trkpt>
      <trkpt lat="47.91369" lon="7.21485">
        <ele>437</ele>
        <time>2016-12-28T13:03:41Z</time>
      </trkpt>
      <trkpt lat="47.91372" lon="7.21473">
        <ele>437</ele>
        <time>2016-12-28T13:03:51Z</time>
      </trkpt>
      <trkpt lat="47.91379" lon="7.21465">
        <ele>435</ele>
        <time>2016-12-28T13:04:02Z</time>
      </trkpt>
      <trkpt lat="47.91388" lon="7.21455">
        <ele>435</ele>
        <time>2016-12-28T13:04:15Z</time>
      </trkpt>
      <trkpt lat="47.91394" lon="7.21443">
        <ele>435</ele>
        <time>2016-12-28T13:04:31Z</time>
      </trkpt>
      <trkpt lat="47.91407" lon="7.21431">
        <ele>436</ele>
        <time>2016-12-28T13:04:47Z</time>
      </trkpt>
      <trkpt lat="47.91437" lon="7.21424">
        <ele>441</ele>
        <time>2016-12-28T13:05:26Z</time>
      </trkpt>
      <trkpt lat="47.91441" lon="7.21417">
        <ele>442</ele>
        <time>2016-12-28T13:05:32Z</time>
      </trkpt>
      <trkpt lat="47.91447" lon="7.21414">
        <ele>443</ele>
        <time>2016-12-28T13:05:38Z</time>
      </trkpt>
      <trkpt lat="47.91451" lon="7.21406">
        <ele>442</ele>
        <time>2016-12-28T13:05:44Z</time>
      </trkpt>
      <trkpt lat="47.91453" lon="7.2139">
        <ele>441</ele>
        <time>2016-12-28T13:05:58Z</time>
      </trkpt>
      <trkpt lat="47.91462" lon="7.21382">
        <ele>439</ele>
        <time>2016-12-28T13:06:08Z</time>
      </trkpt>
      <trkpt lat="47.91468" lon="7.21375">
        <ele>438</ele>
        <time>2016-12-28T13:06:19Z</time>
      </trkpt>
      <trkpt lat="47.91479" lon="7.2137">
        <ele>438</ele>
        <time>2016-12-28T13:06:28Z</time>
      </trkpt>
      <trkpt lat="47.91484" lon="7.21361">
        <ele>437</ele>
        <time>2016-12-28T13:06:33Z</time>
      </trkpt>
      <trkpt lat="47.91492" lon="7.21356">
        <ele>437</ele>
        <time>2016-12-28T13:06:47Z</time>
      </trkpt>
      <trkpt lat="47.91508" lon="7.21341">
        <ele>436</ele>
        <time>2016-12-28T13:07:01Z</time>
      </trkpt>
      <trkpt lat="47.91517" lon="7.2134">
        <ele>437</ele>
        <time>2016-12-28T13:07:13Z</time>
      </trkpt>
      <trkpt lat="47.91531" lon="7.21326">
        <ele>437</ele>
        <time>2016-12-28T13:07:30Z</time>
      </trkpt>
      <trkpt lat="47.91536" lon="7.21315">
        <ele>435</ele>
        <time>2016-12-28T13:07:45Z</time>
      </trkpt>
      <trkpt lat="47.91554" lon="7.21301">
        <ele>432</ele>
        <time>2016-12-28T13:08:02Z</time>
      </trkpt>
      <trkpt lat="47.91582" lon="7.213">
        <ele>432</ele>
        <time>2016-12-28T13:08:52Z</time>
      </trkpt>
      <trkpt lat="47.91601" lon="7.21298">
        <ele>432</ele>
        <time>2016-12-28T13:09:12Z</time>
      </trkpt>
      <trkpt lat="47.91632" lon="7.21293">
        <ele>431</ele>
        <time>2016-12-28T13:09:43Z</time>
      </trkpt>
      <trkpt lat="47.91635" lon="7.21297">
        <ele>431</ele>
        <time>2016-12-28T13:09:51Z</time>
      </trkpt>
      <trkpt lat="47.91643" lon="7.21298">
        <ele>431</ele>
        <time>2016-12-28T13:09:58Z</time>
      </trkpt>
      <trkpt lat="47.91656" lon="7.21306">
        <ele>433</ele>
        <time>2016-12-28T13:10:11Z</time>
      </trkpt>
      <trkpt lat="47.91666" lon="7.21303">
        <ele>432</ele>
        <time>2016-12-28T13:10:24Z</time>
      </trkpt>
      <trkpt lat="47.91673" lon="7.2131">
        <ele>432</ele>
        <time>2016-12-28T13:10:32Z</time>
      </trkpt>
      <trkpt lat="47.91691" lon="7.21319">
        <ele>435</ele>
        <time>2016-12-28T13:10:48Z</time>
      </trkpt>
      <trkpt lat="47.91696" lon="7.21329">
        <ele>437</ele>
        <time>2016-12-28T13:11:03Z</time>
      </trkpt>
      <trkpt lat="47.91728" lon="7.2136">
        <ele>446</ele>
        <time>2016-12-28T13:11:40Z</time>
      </trkpt>
      <trkpt lat="47.91736" lon="7.21358">
        <ele>447</ele>
        <time>2016-12-28T13:11:48Z</time>
      </trkpt>
      <trkpt lat="47.91751" lon="7.21359">
        <ele>447</ele>
        <time>2016-12-28T13:12:01Z</time>
      </trkpt>
      <trkpt lat="47.91759" lon="7.21357">
        <ele>447</ele>
        <time>2016-12-28T13:12:07Z</time>
      </trkpt>
      <trkpt lat="47.91768" lon="7.21355">
        <ele>445</ele>
        <time>2016-12-28T13:12:20Z</time>
      </trkpt>
      <trkpt lat="47.91783" lon="7.21361">
        <ele>445</ele>
        <time>2016-12-28T13:12:37Z</time>
      </trkpt>
      <trkpt lat="47.91791" lon="7.21354">
        <ele>444</ele>
        <time>2016-12-28T13:12:50Z</time>
      </trkpt>
      <trkpt lat="47.91817" lon="7.21348">
        <ele>441</ele>
        <time>2016-12-28T13:13:18Z</time>
      </trkpt>
      <trkpt lat="47.91826" lon="7.21352">
        <ele>440</ele>
        <time>2016-12-28T13:13:27Z</time>
      </trkpt>
      <trkpt lat="47.9183" lon="7.21338">
        <ele>439</ele>
        <time>2016-12-28T13:13:33Z</time>
      </trkpt>
      <trkpt lat="47.91839" lon="7.21337">
        <ele>438</ele>
        <time>2016-12-28T13:13:53Z</time>
      </trkpt>
      <trkpt lat="47.91859" lon="7.21312">
        <ele>431</ele>
        <time>2016-12-28T13:14:24Z</time>
      </trkpt>
      <trkpt lat="47.91873" lon="7.21297">
        <ele>428</ele>
        <time>2016-12-28T13:14:49Z</time>
      </trkpt>
      <trkpt lat="47.91874" lon="7.21286">
        <ele>425</ele>
        <time>2016-12-28T13:14:58Z</time>
      </trkpt>
      <trkpt lat="47.91872" lon="7.2127">
        <ele>423</ele>
        <time>2016-12-28T13:15:09Z</time>
      </trkpt>
      <trkpt lat="47.91879" lon="7.21257">
        <ele>419</ele>
        <time>2016-12-28T13:15:15Z</time>
      </trkpt>
      <trkpt lat="47.91876" lon="7.21246">
        <ele>416</ele>
        <time>2016-12-28T13:15:23Z</time>
      </trkpt>
      <trkpt lat="47.91874" lon="7.21235">
        <ele>412</ele>
        <time>2016-12-28T13:15:33Z</time>
      </trkpt>
      <trkpt lat="47.91879" lon="7.21198">
        <ele>405</ele>
        <time>2016-12-28T13:15:58Z</time>
      </trkpt>
      <trkpt lat="47.91875" lon="7.21188">
        <ele>402</ele>
        <time>2016-12-28T13:16:07Z</time>
      </trkpt>
      <trkpt lat="47.91876" lon="7.2116">
        <ele>398</ele>
        <time>2016-12-28T13:16:38Z</time>
      </trkpt>
      <trkpt lat="47.91879" lon="7.21148">
        <ele>397</ele>
        <time>2016-12-28T13:16:47Z</time>
      </trkpt>
      <trkpt lat="47.91873" lon="7.21102">
        <ele>390</ele>
        <time>2016-12-28T13:17:29Z</time>
      </trkpt>
      <trkpt lat="47.91867" lon="7.21062">
        <ele>383</ele>
        <time>2016-12-28T13:18:02Z</time>
      </trkpt>
      <trkpt lat="47.91868" lon="7.21052">
        <ele>381</ele>
        <time>2016-12-28T13:18:12Z</time>
      </trkpt>
      <trkpt lat="47.91865" lon="7.21044">
        <ele>380</ele>
        <time>2016-12-28T13:18:20Z</time>
      </trkpt>
      <trkpt lat="47.91867" lon="7.21032">
        <ele>380</ele>
        <time>2016-12-28T13:18:28Z</time>
      </trkpt>
      <trkpt lat="47.91865" lon="7.21021">
        <ele>379</ele>
        <time>2016-12-28T13:18:35Z</time>
      </trkpt>
      <trkpt lat="47.91859" lon="7.20988">
        <ele>378</ele>
        <time>2016-12-28T13:19:08Z</time>
      </trkpt>
      <trkpt lat="47.91858" lon="7.2098">
        <ele>378</ele>
        <time>2016-12-28T13:19:12Z</time>
      </trkpt>
      <trkpt lat="47.91848" lon="7.20949">
        <ele>372</ele>
        <time>2016-12-28T13:19:41Z</time>
      </trkpt>
      <trkpt lat="47.91849" lon="7.20941">
        <ele>371</ele>
        <time>2016-12-28T13:19:46Z</time>
      </trkpt>
      <trkpt lat="47.91845" lon="7.2092">
        <ele>373</ele>
        <time>2016-12-28T13:19:58Z</time>
      </trkpt>
      <trkpt lat="47.91842" lon="7.20912">
        <ele>372</ele>
        <time>2016-12-28T13:20:03Z</time>
      </trkpt>
      <trkpt lat="47.91841" lon="7.20901">
        <ele>370</ele>
        <time>2016-12-28T13:20:13Z</time>
      </trkpt>
      <trkpt lat="47.91834" lon="7.20866">
        <ele>367</ele>
        <time>2016-12-28T13:20:34Z</time>
      </trkpt>
      <trkpt lat="47.91831" lon="7.20852">
        <ele>365</ele>
        <time>2016-12-28T13:20:47Z</time>
      </trkpt>
      <trkpt lat="47.91827" lon="7.20839">
        <ele>365</ele>
        <time>2016-12-28T13:20:57Z</time>
      </trkpt>
      <trkpt lat="47.91824" lon="7.20828">
        <ele>364</ele>
        <time>2016-12-28T13:21:08Z</time>
      </trkpt>
      <trkpt lat="47.91811" lon="7.20803">
        <ele>359</ele>
        <time>2016-12-28T13:21:37Z</time>
      </trkpt>
      <trkpt lat="47.91807" lon="7.2078">
        <ele>358</ele>
        <time>2016-12-28T13:21:47Z</time>
      </trkpt>
      <trkpt lat="47.91804" lon="7.20774">
        <ele>358</ele>
        <time>2016-12-28T13:21:54Z</time>
      </trkpt>
      <trkpt lat="47.91806" lon="7.20767">
        <ele>357</ele>
        <time>2016-12-28T13:22:01Z</time>
      </trkpt>
      <trkpt lat="47.91801" lon="7.20759">
        <ele>356</ele>
        <time>2016-12-28T13:22:08Z</time>
      </trkpt>
      <trkpt lat="47.91793" lon="7.20725">
        <ele>351</ele>
        <time>2016-12-28T13:22:42Z</time>
      </trkpt>
      <trkpt lat="47.91789" lon="7.20717">
        <ele>350</ele>
        <time>2016-12-28T13:22:45Z</time>
      </trkpt>
      <trkpt lat="47.91787" lon="7.20714">
        <ele>348</ele>
        <time>2016-12-28T13:22:52Z</time>
      </trkpt>
      <trkpt lat="47.9179" lon="7.20702">
        <ele>348</ele>
        <time>2016-12-28T13:22:59Z</time>
      </trkpt>
      <trkpt lat="47.91782" lon="7.20692">
        <ele>346</ele>
        <time>2016-12-28T13:23:10Z</time>
      </trkpt>
      <trkpt lat="47.91786" lon="7.2068">
        <ele>345</ele>
        <time>2016-12-28T13:23:16Z</time>
      </trkpt>
      <trkpt lat="47.91783" lon="7.20675">
        <ele>343</ele>
        <time>2016-12-28T13:23:27Z</time>
      </trkpt>
      <trkpt lat="47.91777" lon="7.20661">
        <ele>343</ele>
        <time>2016-12-28T13:23:36Z</time>
      </trkpt>
      <trkpt lat="47.91768" lon="7.20663">
        <ele>340</ele>
        <time>2016-12-28T13:23:44Z</time>
      </trkpt>
      <trkpt lat="47.91764" lon="7.20674">
        <ele>339</ele>
        <time>2016-12-28T13:23:49Z</time>
      </trkpt>
      <trkpt lat="47.91756" lon="7.20699">
        <ele>337</ele>
        <time>2016-12-28T13:24:11Z</time>
      </trkpt>
      <trkpt lat="47.91749" lon="7.20702">
        <ele>337</ele>
        <time>2016-12-28T13:24:14Z</time>
      </trkpt>
      <trkpt lat="47.91749" lon="7.20712">
        <ele>336</ele>
        <time>2016-12-28T13:24:22Z</time>
      </trkpt>
      <trkpt lat="47.91753" lon="7.20722">
        <ele>336</ele>
        <time>2016-12-28T13:24:28Z</time>
      </trkpt>
      <trkpt lat="47.91746" lon="7.20728">
        <ele>336</ele>
        <time>2016-12-28T13:24:34Z</time>
      </trkpt>
      <trkpt lat="47.9175" lon="7.20739">
        <ele>336</ele>
        <time>2016-12-28T13:24:39Z</time>
      </trkpt>
      <trkpt lat="47.91754" lon="7.20745">
        <ele>337</ele>
        <time>2016-12-28T13:24:49Z</time>
      </trkpt>
      <trkpt lat="47.91752" lon="7.20754">
        <ele>337</ele>
        <time>2016-12-28T13:24:56Z</time>
      </trkpt>
      <trkpt lat="47.91751" lon="7.20775">
        <ele>337</ele>
        <time>2016-12-28T13:25:13Z</time>
      </trkpt>
      <trkpt lat="47.9175" lon="7.20785">
        <ele>337</ele>
        <time>2016-12-28T13:25:20Z</time>
      </trkpt>
      <trkpt lat="47.91746" lon="7.20794">
        <ele>336</ele>
        <time>2016-12-28T13:25:35Z</time>
      </trkpt>
      <trkpt lat="47.9174" lon="7.20789">
        <ele>335</ele>
        <time>2016-12-28T13:25:49Z</time>
      </trkpt>
      <trkpt lat="47.91723" lon="7.20758">
        <ele>331</ele>
        <time>2016-12-28T13:26:16Z</time>
      </trkpt>
      <trkpt lat="47.91725" lon="7.20745">
        <ele>329</ele>
        <time>2016-12-28T13:26:28Z</time>
      </trkpt>
      <trkpt lat="47.91717" lon="7.20739">
        <ele>329</ele>
        <time>2016-12-28T13:26:38Z</time>
      </trkpt>
      <trkpt lat="47.91714" lon="7.2073">
        <ele>327</ele>
        <time>2016-12-28T13:26:44Z</time>
      </trkpt>
      <trkpt lat="47.91711" lon="7.20711">
        <ele>325</ele>
        <time>2016-12-28T13:26:59Z</time>
      </trkpt>
      <trkpt lat="47.91697" lon="7.20693">
        <ele>322</ele>
        <time>2016-12-28T13:27:25Z</time>
      </trkpt>
      <trkpt lat="47.91694" lon="7.20678">
        <ele>319</ele>
        <time>2016-12-28T13:27:41Z</time>
      </trkpt>
      <trkpt lat="47.9169" lon="7.2067">
        <ele>318</ele>
        <time>2016-12-28T13:27:46Z</time>
      </trkpt>
      <trkpt lat="47.91688" lon="7.20662">
        <ele>317</ele>
        <time>2016-12-28T13:27:54Z</time>
      </trkpt>
      <trkpt lat="47.91687" lon="7.20632">
        <ele>315</ele>
        <time>2016-12-28T13:28:17Z</time>
      </trkpt>
      <trkpt lat="47.91684" lon="7.20623">
        <ele>314</ele>
        <time>2016-12-28T13:28:24Z</time>
      </trkpt>
      <trkpt lat="47.9168" lon="7.20606">
        <ele>313</ele>
        <time>2016-12-28T13:28:38Z</time>
      </trkpt>
      <trkpt lat="47.9168" lon="7.20601">
        <ele>313</ele>
        <time>2016-12-28T13:28:46Z</time>
      </trkpt>
      <trkpt lat="47.9168" lon="7.2059">
        <ele>312</ele>
        <time>2016-12-28T13:28:50Z</time>
      </trkpt>
      <trkpt lat="47.91667" lon="7.20561">
        <ele>309</ele>
        <time>2016-12-28T13:29:19Z</time>
      </trkpt>
      <trkpt lat="47.91667" lon="7.20553">
        <ele>308</ele>
        <time>2016-12-28T13:29:25Z</time>
      </trkpt>
      <trkpt lat="47.91671" lon="7.20545">
        <ele>308</ele>
        <time>2016-12-28T13:29:30Z</time>
      </trkpt>
      <trkpt lat="47.91678" lon="7.20537">
        <ele>309</ele>
        <time>2016-12-28T13:29:36Z</time>
      </trkpt>
      <trkpt lat="47.91685" lon="7.20514">
        <ele>309</ele>
        <time>2016-12-28T13:29:53Z</time>
      </trkpt>
      <trkpt lat="47.91692" lon="7.20508">
        <ele>308</ele>
        <time>2016-12-28T13:29:58Z</time>
      </trkpt>
      <trkpt lat="47.91688" lon="7.20495">
        <ele>308</ele>
        <time>2016-12-28T13:30:09Z</time>
      </trkpt>
      <trkpt lat="47.91679" lon="7.20476">
        <ele>308</ele>
        <time>2016-12-28T13:30:22Z</time>
      </trkpt>
      <trkpt lat="47.91663" lon="7.20459">
        <ele>308</ele>
        <time>2016-12-28T13:30:38Z</time>
      </trkpt>
      <trkpt lat="47.91658" lon="7.20468">
        <ele>308</ele>
        <time>2016-12-28T13:30:47Z</time>
      </trkpt>
      <trkpt lat="47.91651" lon="7.20496">
        <ele>307</ele>
        <time>2016-12-28T13:31:03Z</time>
      </trkpt>
      <trkpt lat="47.91645" lon="7.20504">
        <ele>307</ele>
        <time>2016-12-28T13:31:13Z</time>
      </trkpt>
      <trkpt lat="47.91632" lon="7.2055">
        <ele>306</ele>
        <time>2016-12-28T13:31:48Z</time>
      </trkpt>
      <trkpt lat="47.91631" lon="7.2056">
        <ele>306</ele>
        <time>2016-12-28T13:31:51Z</time>
      </trkpt>
      <trkpt lat="47.91627" lon="7.20567">
        <ele>306</ele>
        <time>2016-12-28T13:31:56Z</time>
      </trkpt>
      <trkpt lat="47.91622" lon="7.20572">
        <ele>306</ele>
        <time>2016-12-28T13:32:03Z</time>
      </trkpt>
      <trkpt lat="47.9162" lon="7.20582">
        <ele>306</ele>
        <time>2016-12-28T13:32:09Z</time>
      </trkpt>
      <trkpt lat="47.91616" lon="7.20588">
        <ele>306</ele>
        <time>2016-12-28T13:32:15Z</time>
      </trkpt>
      <trkpt lat="47.9161" lon="7.20607">
        <ele>306</ele>
        <time>2016-12-28T13:32:30Z</time>
      </trkpt>
      <trkpt lat="47.91606" lon="7.20654">
        <ele>306</ele>
        <time>2016-12-28T13:33:02Z</time>
      </trkpt>
      <trkpt lat="47.91601" lon="7.20663">
        <ele>305</ele>
        <time>2016-12-28T13:33:11Z</time>
      </trkpt>
      <trkpt lat="47.91597" lon="7.20697">
        <ele>305</ele>
        <time>2016-12-28T13:33:30Z</time>
      </trkpt>
      <trkpt lat="47.91583" lon="7.20726">
        <ele>304</ele>
        <time>2016-12-28T13:33:53Z</time>
      </trkpt>
      <trkpt lat="47.91576" lon="7.20731">
        <ele>304</ele>
        <time>2016-12-28T13:33:57Z</time>
      </trkpt>
      <trkpt lat="47.91572" lon="7.20737">
        <ele>304</ele>
        <time>2016-12-28T13:34:04Z</time>
      </trkpt>
      <trkpt lat="47.91567" lon="7.20734">
        <ele>304</ele>
        <time>2016-12-28T13:34:10Z</time>
      </trkpt>
      <trkpt lat="47.91561" lon="7.20735">
        <ele>303</ele>
        <time>2016-12-28T13:34:17Z</time>
      </trkpt>
      <trkpt lat="47.91556" lon="7.20744">
        <ele>303</ele>
        <time>2016-12-28T13:34:23Z</time>
      </trkpt>
      <trkpt lat="47.91544" lon="7.20749">
        <ele>302</ele>
        <time>2016-12-28T13:34:34Z</time>
      </trkpt>
      <trkpt lat="47.9154" lon="7.2076">
        <ele>302</ele>
        <time>2016-12-28T13:34:42Z</time>
      </trkpt>
      <trkpt lat="47.91538" lon="7.2078">
        <ele>303</ele>
        <time>2016-12-28T13:35:00Z</time>
      </trkpt>
      <trkpt lat="47.91533" lon="7.20788">
        <ele>303</ele>
        <time>2016-12-28T13:35:05Z</time>
      </trkpt>
      <trkpt lat="47.915" lon="7.20814">
        <ele>302</ele>
        <time>2016-12-28T13:35:40Z</time>
      </trkpt>
      <trkpt lat="47.91469" lon="7.20838">
        <ele>302</ele>
        <time>2016-12-28T13:36:13Z</time>
      </trkpt>
      <trkpt lat="47.91463" lon="7.2084">
        <ele>302</ele>
        <time>2016-12-28T13:36:17Z</time>
      </trkpt>
      <trkpt lat="47.91432" lon="7.20854">
        <ele>300</ele>
        <time>2016-12-28T13:36:48Z</time>
      </trkpt>
      <trkpt lat="47.91412" lon="7.20865">
        <ele>300</ele>
        <time>2016-12-28T13:37:05Z</time>
      </trkpt>
      <trkpt lat="47.91404" lon="7.20864">
        <ele>300</ele>
        <time>2016-12-28T13:37:11Z</time>
      </trkpt>
      <trkpt lat="47.91396" lon="7.20869">
        <ele>300</ele>
        <time>2016-12-28T13:37:17Z</time>
      </trkpt>
      <trkpt lat="47.91387" lon="7.20883">
        <ele>300</ele>
        <time>2016-12-28T13:37:29Z</time>
      </trkpt>
      <trkpt lat="47.91363" lon="7.20891">
        <ele>300</ele>
        <time>2016-12-28T13:38:03Z</time>
      </trkpt>
      <trkpt lat="47.9135" lon="7.2089">
        <ele>300</ele>
        <time>2016-12-28T13:38:08Z</time>
      </trkpt>
      <trkpt lat="47.91343" lon="7.2091">
        <ele>300</ele>
        <time>2016-12-28T13:38:16Z</time>
      </trkpt>
      <trkpt lat="47.91336" lon="7.20915">
        <ele>299</ele>
        <time>2016-12-28T13:38:20Z</time>
      </trkpt>
      <trkpt lat="47.91331" lon="7.20925">
        <ele>299</ele>
        <time>2016-12-28T13:38:30Z</time>
      </trkpt>
      <trkpt lat="47.91324" lon="7.20928">
        <ele>298</ele>
        <time>2016-12-28T13:38:34Z</time>
      </trkpt>
      <trkpt lat="47.91319" lon="7.20936">
        <ele>298</ele>
        <time>2016-12-28T13:38:41Z</time>
      </trkpt>
      <trkpt lat="47.91318" lon="7.20959">
        <ele>298</ele>
        <time>2016-12-28T13:38:56Z</time>
      </trkpt>
      <trkpt lat="47.91306" lon="7.20959">
        <ele>298</ele>
        <time>2016-12-28T13:39:01Z</time>
      </trkpt>
      <trkpt lat="47.91295" lon="7.20964">
        <ele>298</ele>
        <time>2016-12-28T13:39:17Z</time>
      </trkpt>
      <trkpt lat="47.91276" lon="7.20994">
        <ele>298</ele>
        <time>2016-12-28T13:39:38Z</time>
      </trkpt>
      <trkpt lat="47.91269" lon="7.20999">
        <ele>297</ele>
        <time>2016-12-28T13:39:46Z</time>
      </trkpt>
      <trkpt lat="47.91264" lon="7.21021">
        <ele>297</ele>
        <time>2016-12-28T13:39:54Z</time>
      </trkpt>
      <trkpt lat="47.91251" lon="7.21007">
        <ele>297</ele>
        <time>2016-12-28T13:40:01Z</time>
      </trkpt>
      <trkpt lat="47.91246" lon="7.21027">
        <ele>296</ele>
        <time>2016-12-28T13:40:08Z</time>
      </trkpt>
      <trkpt lat="47.91235" lon="7.21033">
        <ele>296</ele>
        <time>2016-12-28T13:40:36Z</time>
      </trkpt>
    </trkseg>
  </trk>
</gpx>